createdAt,value
2022-10-04T00:01:45.042Z,92.55
2022-10-04T00:04:21.447Z,93.13
2022-10-04T00:07:16.217Z,93.58
2022-10-04T00:09:53.202Z,93.82
2022-10-04T00:12:27.175Z,92.72
2022-10-04T00:14:57.452Z,92.46
2022-10-04T00:17:27.317Z,92.33
2022-10-04T00:19:55.169Z,92.53
2022-10-04T00:22:23.977Z,93.02
2022-10-04T00:25:09.865Z,93.56
2022-10-04T00:27:38.192Z,94.56
2022-10-04T00:30:04.526Z,94.76
2022-10-04T00:32:40.262Z,95.85
2022-10-04T00:35:24.744Z,94.62
2022-10-04T00:37:58.731Z,94.52
2022-10-04T00:40:32.780Z,94.05
2022-10-04T00:43:05.006Z,93.61
2022-10-04T00:45:41.471Z,93.16
2022-10-04T00:48:07.798Z,92.91
2022-10-04T00:50:42.012Z,92.35
2022-10-04T00:53:27.238Z,93.21
2022-10-04T00:55:59.991Z,93.91
2022-10-04T00:58:32.597Z,93.48
2022-10-04T01:01:00.976Z,93.39
2022-10-04T01:03:41.317Z,93.72
2022-10-04T01:06:10.864Z,94.02
2022-10-04T01:08:54.591Z,93.67
2022-10-04T01:11:27.192Z,93.24
2022-10-04T01:14:08.716Z,92.19
2022-10-04T01:16:36.369Z,92.18
2022-10-04T01:19:24.716Z,94.57
2022-10-04T01:21:58.676Z,94.34
2022-10-04T01:24:25.127Z,94.82
2022-10-04T01:26:51.601Z,94.38
2022-10-04T01:29:25.482Z,93.70
2022-10-04T01:31:54.870Z,93.38
2022-10-04T01:34:24.806Z,94.33
2022-10-04T01:36:54.308Z,94.54
2022-10-04T01:39:23.206Z,93.78
2022-10-04T01:42:03.206Z,92.77
2022-10-04T01:45:18.862Z,93.13
2022-10-04T01:47:54.031Z,92.79
2022-10-04T01:50:28.046Z,92.06
2022-10-04T01:53:01.434Z,92.96
2022-10-04T01:55:34.192Z,92.93
2022-10-04T01:58:17.227Z,93.25
2022-10-04T02:00:52.043Z,93.26
2022-10-04T02:03:27.588Z,93.34
2022-10-04T02:05:58.756Z,93.36
2022-10-04T02:08:33.634Z,93.88
2022-10-04T02:11:03.112Z,93.09
2022-10-04T02:13:40.941Z,93.72
2022-10-04T02:16:12.092Z,93.35
2022-10-04T02:18:40.178Z,94.47
2022-10-04T02:21:08.152Z,94.74
2022-10-04T02:23:36.981Z,93.32
2022-10-04T02:26:08.105Z,92.61
2022-10-04T02:28:36.134Z,92.65
2022-10-04T02:31:23.750Z,92.17
2022-10-04T02:33:52.892Z,92.39
2022-10-04T02:36:25.718Z,92.31
2022-10-04T02:39:16.328Z,92.97
2022-10-04T02:42:03.749Z,93.66
2022-10-04T02:44:40.115Z,93.32
2022-10-04T02:47:13.968Z,93.84
2022-10-04T02:49:52.574Z,93.08
2022-10-04T02:52:25.989Z,93.49
2022-10-04T02:55:03.258Z,94.38
2022-10-04T02:57:32.743Z,93.75
2022-10-04T03:00:20.982Z,93.90
2022-10-04T03:03:12.279Z,94.28
2022-10-04T03:05:40.453Z,93.13
2022-10-04T03:08:07.412Z,92.32
2022-10-04T03:10:35.438Z,92.78
2022-10-04T03:13:03.328Z,93.27
2022-10-04T03:15:30.291Z,93.44
2022-10-04T03:17:56.802Z,93.49
2022-10-04T03:20:23.163Z,93.31
2022-10-04T03:22:55.590Z,93.23
2022-10-04T03:25:48.571Z,93.79
2022-10-04T03:28:15.244Z,93.30
2022-10-04T03:30:46.631Z,92.73
2022-10-04T03:33:31.442Z,92.23
2022-10-04T03:36:00.821Z,91.65
2022-10-04T03:38:28.813Z,92.15
2022-10-04T03:40:59.028Z,92.11
2022-10-04T03:43:31.398Z,92.38
2022-10-04T03:46:00.361Z,93.24
2022-10-04T03:48:44.675Z,92.98
2022-10-04T03:51:16.879Z,92.90
2022-10-04T03:53:47.386Z,93.05
2022-10-04T03:56:44.586Z,93.06
2022-10-04T03:59:16.131Z,94.41
2022-10-04T04:01:56.336Z,94.69
2022-10-04T04:04:46.211Z,93.77
2022-10-04T04:07:20.117Z,93.45
2022-10-04T04:10:01.629Z,93.01
2022-10-04T04:12:49.563Z,91.73
2022-10-04T04:15:16.979Z,91.89
2022-10-04T04:17:49.451Z,91.12
2022-10-04T04:20:22.366Z,91.32
2022-10-04T04:22:59.589Z,92.33
2022-10-04T04:25:29.107Z,92.16
2022-10-04T04:28:27.572Z,93.48
2022-10-04T04:31:00.278Z,93.74
2022-10-04T04:33:34.442Z,94.22
2022-10-04T04:36:06.496Z,93.52
2022-10-04T04:38:33.216Z,92.97
2022-10-04T04:41:09.846Z,92.86
2022-10-04T04:43:36.341Z,94.15
2022-10-04T04:46:26.606Z,93.41
2022-10-04T04:49:02.814Z,93.34
2022-10-04T04:51:31.922Z,93.02
2022-10-04T04:54:01.139Z,92.40
2022-10-04T04:56:30.076Z,92.11
2022-10-04T04:59:01.641Z,92.62
2022-10-04T05:01:31.911Z,92.46
2022-10-04T05:04:13.477Z,92.94
2022-10-04T05:06:42.611Z,92.50
2022-10-04T05:09:27.994Z,92.69
2022-10-04T05:12:02.349Z,92.31
2022-10-04T05:14:31.678Z,92.78
2022-10-04T05:16:58.317Z,92.33
2022-10-04T05:19:32.093Z,92.48
2022-10-04T05:22:01.527Z,92.55
2022-10-04T05:24:38.624Z,93.74
2022-10-04T05:27:16.821Z,93.45
2022-10-04T05:30:08.753Z,93.66
2022-10-04T05:33:02.814Z,93.13
2022-10-04T05:35:38.547Z,93.01
2022-10-04T05:38:19.380Z,92.51
2022-10-04T05:41:05.290Z,92.08
2022-10-04T05:43:34.691Z,91.37
2022-10-04T05:46:10.431Z,91.10
2022-10-04T05:48:39.396Z,90.76
2022-10-04T05:51:25.414Z,90.86
2022-10-04T05:53:52.772Z,91.38
2022-10-04T05:56:32.319Z,91.69
2022-10-04T05:59:32.528Z,92.16
2022-10-04T06:02:17.891Z,92.07
2022-10-04T06:05:05.737Z,91.11
2022-10-04T06:07:46.362Z,91.30
2022-10-04T06:10:42.175Z,90.84
2022-10-04T06:13:17.215Z,91.16
2022-10-04T06:15:48.191Z,91.38
2022-10-04T06:18:23.738Z,91.51
2022-10-04T06:21:05.425Z,91.81
2022-10-04T06:23:37.025Z,91.47
2022-10-04T06:26:18.021Z,91.25
2022-10-04T06:28:50.145Z,90.96
2022-10-04T06:31:24.508Z,90.55
2022-10-04T06:34:21.852Z,90.19
2022-10-04T06:37:17.584Z,90.49
2022-10-04T06:40:02.874Z,91.73
2022-10-04T06:42:39.321Z,91.21
2022-10-04T06:45:28.999Z,91.14
2022-10-04T06:48:23.043Z,90.65
2022-10-04T06:51:03.289Z,90.05
2022-10-04T06:53:57.660Z,89.49
2022-10-04T06:56:46.594Z,89.01
2022-10-04T06:59:26.755Z,88.42
2022-10-04T07:02:00.526Z,87.76
2022-10-04T07:07:37.256Z,86.11
2022-10-04T07:10:24.009Z,84.89
2022-10-04T07:13:04.417Z,82.65
2022-10-04T07:15:41.688Z,80.60
2022-10-04T07:18:15.329Z,79.04
2022-10-04T07:20:42.031Z,79.03
2022-10-04T07:23:23.958Z,75.92
2022-10-04T07:25:58.832Z,75.40
2022-10-04T07:28:51.660Z,74.20
2022-10-04T07:31:27.279Z,72.50
2022-10-04T07:34:01.443Z,71.17
2022-10-04T07:36:39.941Z,69.57
2022-10-04T07:39:18.902Z,66.38
2022-10-04T07:41:50.552Z,66.23
2022-10-04T07:44:35.984Z,67.19
2022-10-04T07:47:25.706Z,67.30
2022-10-04T07:49:54.001Z,67.42
2022-10-04T07:52:44.965Z,66.77
2022-10-04T07:55:37.234Z,67.38
2022-10-04T07:58:35.385Z,66.25
2022-10-04T08:01:10.204Z,65.03
2022-10-04T08:03:39.595Z,65.55
2022-10-04T08:06:12.019Z,64.56
2022-10-04T08:08:58.154Z,63.61
2022-10-04T08:11:38.667Z,62.00
2022-10-04T08:14:17.413Z,61.09
2022-10-04T08:17:01.486Z,58.65
2022-10-04T08:19:56.837Z,57.06
2022-10-04T08:22:37.643Z,57.07
2022-10-04T08:25:27.305Z,57.13
2022-10-04T08:28:41.714Z,56.81
2022-10-04T08:31:36.786Z,57.41
2022-10-04T08:34:34.013Z,57.25
2022-10-04T08:37:38.866Z,57.21
2022-10-04T08:40:20.346Z,56.13
2022-10-04T08:43:13.274Z,54.75
2022-10-04T08:46:10.190Z,58.85
2022-10-04T08:49:13.947Z,57.95
2022-10-04T08:51:51.147Z,56.80
2022-10-04T08:54:29.899Z,54.26
2022-10-04T08:57:16.157Z,54.67
2022-10-04T09:00:18.480Z,55.73
2022-10-04T09:03:00.113Z,56.69
2022-10-04T09:05:46.676Z,56.92
2022-10-04T09:08:40.827Z,58.60
2022-10-04T09:11:22.370Z,59.68
2022-10-04T09:14:38.778Z,62.00
2022-10-04T09:17:31.088Z,59.54
2022-10-04T09:20:37.705Z,58.51
2022-10-04T09:23:33.693Z,57.69
2022-10-04T09:26:44.066Z,57.28
2022-10-04T09:29:22.341Z,58.22
2022-10-04T09:32:10.274Z,57.05
2022-10-04T09:34:58.308Z,60.26
2022-10-04T09:37:49.568Z,58.56
2022-10-04T09:40:35.085Z,56.36
2022-10-04T09:43:37.574Z,54.93
2022-10-04T09:46:20.131Z,52.29
2022-10-04T09:49:10.914Z,50.13
2022-10-04T09:52:01.230Z,50.56
2022-10-04T09:54:50.612Z,52.35
2022-10-04T09:57:30.161Z,54.31
2022-10-04T10:00:22.011Z,54.89
2022-10-04T10:03:26.254Z,50.85
2022-10-04T10:06:14.422Z,53.60
2022-10-04T10:09:22.322Z,54.74
2022-10-04T10:12:16.248Z,52.95
2022-10-04T10:15:08.238Z,57.49
2022-10-04T10:18:08.892Z,57.81
2022-10-04T10:21:02.409Z,52.76
2022-10-04T10:23:50.690Z,51.27
2022-10-04T10:26:32.927Z,51.16
2022-10-04T10:29:30.890Z,52.16
2022-10-04T10:32:01.948Z,48.21
2022-10-04T10:34:49.640Z,46.75
2022-10-04T10:37:51.246Z,45.73
2022-10-04T10:40:32.794Z,43.98
2022-10-04T10:43:34.021Z,43.95
2022-10-04T10:46:38.147Z,42.27
2022-10-04T10:49:31.881Z,39.25
2022-10-04T10:52:25.383Z,39.71
2022-10-04T10:55:10.589Z,37.75
2022-10-04T10:57:55.765Z,40.78
2022-10-04T11:00:24.539Z,41.82
2022-10-04T11:03:35.976Z,39.85
2022-10-04T11:06:16.409Z,39.72
2022-10-04T11:09:22.981Z,40.17
2022-10-04T11:12:32.377Z,39.18
2022-10-04T11:15:47.393Z,35.83
2022-10-04T11:18:32.415Z,34.92
2022-10-04T11:21:17.532Z,36.91
2022-10-04T11:23:53.428Z,33.49
2022-10-04T11:26:25.649Z,35.30
2022-10-04T11:29:16.132Z,37.31
2022-10-04T11:31:54.815Z,38.99
2022-10-04T11:34:40.043Z,32.37
2022-10-04T11:37:29.169Z,31.91
2022-10-04T11:40:30.430Z,28.37
2022-10-04T11:43:35.972Z,27.11
2022-10-04T11:46:12.155Z,30.48
2022-10-04T11:49:14.369Z,33.42
2022-10-04T11:52:16.854Z,31.93
2022-10-04T11:55:23.338Z,33.93
2022-10-04T11:58:14.628Z,33.77
2022-10-04T12:00:56.209Z,35.62
2022-10-04T12:03:53.310Z,36.70
2022-10-04T12:06:47.757Z,37.21
2022-10-04T12:09:25.949Z,37.06
2022-10-04T12:12:39.253Z,36.56
2022-10-04T12:15:30.287Z,36.84
2022-10-04T12:18:09.023Z,36.20
2022-10-04T12:20:53.222Z,34.94
2022-10-04T12:23:49.737Z,33.40
2022-10-04T12:26:41.024Z,33.01
2022-10-04T12:29:28.877Z,35.91
2022-10-04T12:32:04.260Z,33.38
2022-10-04T12:34:40.204Z,33.24
2022-10-04T12:37:30.893Z,35.35
2022-10-04T12:40:12.583Z,39.21
2022-10-04T12:42:41.978Z,38.00
2022-10-04T12:45:08.333Z,37.96
2022-10-04T12:48:10.982Z,37.82
2022-10-04T12:50:54.376Z,37.18
2022-10-04T12:53:31.987Z,35.85
2022-10-04T12:56:04.330Z,36.25
2022-10-04T12:58:52.120Z,36.00
2022-10-04T13:01:46.819Z,36.82
2022-10-04T13:04:23.527Z,34.76
2022-10-04T13:06:59.378Z,37.10
2022-10-04T13:09:48.583Z,36.28
2022-10-04T13:13:08.893Z,36.02
2022-10-04T13:18:57.529Z,37.03
2022-10-04T13:21:36.206Z,33.99
2022-10-04T13:24:25.441Z,33.57
2022-10-04T13:27:01.006Z,33.71
2022-10-04T13:29:38.230Z,31.21
2022-10-04T13:32:20.840Z,30.52
2022-10-04T13:35:07.098Z,31.71
2022-10-04T13:37:49.075Z,37.17
2022-10-04T13:40:24.363Z,33.38
2022-10-04T13:42:53.581Z,34.79
2022-10-04T13:45:41.477Z,37.60
2022-10-04T13:48:32.507Z,35.97
2022-10-04T13:51:39.291Z,35.68
2022-10-04T13:54:24.020Z,34.96
2022-10-04T13:57:18.586Z,34.31
2022-10-04T14:00:02.491Z,36.25
2022-10-04T14:03:01.105Z,34.28
2022-10-04T14:05:42.652Z,34.65
2022-10-04T14:08:32.786Z,35.26
2022-10-04T14:11:23.778Z,37.63
2022-10-04T14:14:00.386Z,44.41
2022-10-04T14:16:41.786Z,46.22
2022-10-04T14:19:45.667Z,46.84
2022-10-04T14:22:48.539Z,47.36
2022-10-04T14:25:46.068Z,49.93
2022-10-04T14:28:31.636Z,51.85
2022-10-04T14:31:08.008Z,51.41
2022-10-04T14:34:26.740Z,53.59
2022-10-04T14:37:13.347Z,54.19
2022-10-04T14:39:54.980Z,54.88
2022-10-04T14:43:00.050Z,53.51
2022-10-04T14:46:04.646Z,54.15
2022-10-04T14:48:55.656Z,54.50
2022-10-04T14:51:37.724Z,54.34
2022-10-04T14:54:36.083Z,54.06
2022-10-04T14:57:25.622Z,55.36
2022-10-04T15:00:03.316Z,55.53
2022-10-04T15:02:32.958Z,54.86
2022-10-04T15:04:59.300Z,54.50
2022-10-04T15:07:38.087Z,55.75
2022-10-04T15:10:18.949Z,53.57
2022-10-04T15:13:30.380Z,54.62
2022-10-04T15:16:12.919Z,55.81
2022-10-04T15:18:56.718Z,55.22
2022-10-04T15:21:44.065Z,54.95
2022-10-04T15:24:31.730Z,55.11
2022-10-04T15:27:30.130Z,55.21
2022-10-04T15:30:20.941Z,56.93
2022-10-04T15:33:01.189Z,56.68
2022-10-04T15:35:36.894Z,57.54
2022-10-04T15:38:38.266Z,57.96
2022-10-04T15:41:13.809Z,58.26
2022-10-04T15:44:05.848Z,57.25
2022-10-04T15:47:00.545Z,58.18
2022-10-04T15:49:49.985Z,58.26
2022-10-04T15:52:45.838Z,56.55
2022-10-04T15:55:47.970Z,57.73
2022-10-04T15:58:33.353Z,57.63
2022-10-04T16:01:06.330Z,56.52
2022-10-04T16:03:46.082Z,56.07
2022-10-04T16:06:32.818Z,56.93
2022-10-04T16:09:37.439Z,58.00
2022-10-04T16:13:01.347Z,58.20
2022-10-04T16:15:34.455Z,58.36
2022-10-04T16:18:12.226Z,59.08
2022-10-04T16:20:57.264Z,59.17
2022-10-04T16:23:39.978Z,58.45
2022-10-04T16:26:11.257Z,59.28
2022-10-04T16:29:16.510Z,60.06
2022-10-04T16:31:47.852Z,61.07
2022-10-04T16:34:43.101Z,61.36
2022-10-04T16:37:44.724Z,62.87
2022-10-04T16:40:26.619Z,63.50
2022-10-04T16:43:20.958Z,64.55
2022-10-04T16:46:15.329Z,66.31
2022-10-04T16:48:57.498Z,65.65
2022-10-04T16:51:43.045Z,66.83
2022-10-04T16:54:12.157Z,66.30
2022-10-04T16:56:53.971Z,68.87
2022-10-04T16:59:38.672Z,68.94
2022-10-04T17:02:33.301Z,70.10
2022-10-04T17:05:02.845Z,69.52
2022-10-04T17:07:34.889Z,68.95
2022-10-04T17:10:32.089Z,69.83
2022-10-04T17:13:13.706Z,71.00
2022-10-04T17:15:49.785Z,71.01
2022-10-04T17:18:29.462Z,71.50
2022-10-04T17:21:05.935Z,71.96
2022-10-04T17:23:57.133Z,72.90
2022-10-04T17:26:38.418Z,75.32
2022-10-04T17:29:49.124Z,75.07
2022-10-04T17:32:35.089Z,75.92
2022-10-04T17:35:54.390Z,76.36
2022-10-04T17:38:43.559Z,77.12
2022-10-04T17:41:27.093Z,78.33
2022-10-04T17:44:24.329Z,79.24
2022-10-04T17:47:15.926Z,79.95
2022-10-04T17:50:14.923Z,80.94
2022-10-04T17:53:04.415Z,82.14
2022-10-04T17:55:58.990Z,83.02
2022-10-04T17:58:44.490Z,83.18
2022-10-04T18:01:17.625Z,83.12
2022-10-04T18:04:36.719Z,83.17
2022-10-04T18:07:18.657Z,83.64
2022-10-04T18:09:52.620Z,83.82
2022-10-04T18:12:29.981Z,84.53
2022-10-04T18:15:07.318Z,85.17
2022-10-04T18:17:45.072Z,85.12
2022-10-04T18:20:27.255Z,86.26
2022-10-04T18:23:13.387Z,85.73
2022-10-04T18:25:41.608Z,85.45
2022-10-04T18:28:07.970Z,85.27
2022-10-04T18:30:51.297Z,85.70
2022-10-04T18:33:26.454Z,87.19
2022-10-04T18:36:16.665Z,86.12
2022-10-04T18:38:47.327Z,86.43
2022-10-04T18:41:23.061Z,86.49
2022-10-04T18:43:58.429Z,86.15
2022-10-04T18:46:25.357Z,87.14
2022-10-04T18:48:56.867Z,87.24
2022-10-04T18:51:39.120Z,86.94
2022-10-04T18:54:41.549Z,87.03
2022-10-04T18:57:54.832Z,88.21
2022-10-04T19:00:40.646Z,88.86
2022-10-04T19:03:32.122Z,89.00
2022-10-04T19:06:13.822Z,88.30
2022-10-04T19:08:40.138Z,88.71
2022-10-04T19:11:15.995Z,88.46
2022-10-04T19:13:52.983Z,87.87
2022-10-04T19:16:42.811Z,87.60
2022-10-04T19:19:20.436Z,87.40
2022-10-04T19:22:00.833Z,88.98
2022-10-04T19:25:02.729Z,89.28
2022-10-04T19:27:41.098Z,90.05
2022-10-04T19:30:52.331Z,88.90
2022-10-04T19:33:36.942Z,88.72
2022-10-04T19:36:03.551Z,88.32
2022-10-04T19:38:40.461Z,88.12
2022-10-04T19:41:20.830Z,88.55
2022-10-04T19:43:58.667Z,89.05
2022-10-04T19:46:35.073Z,88.76
2022-10-04T19:49:02.871Z,88.25
2022-10-04T19:51:42.373Z,88.33
2022-10-04T19:54:15.910Z,89.70
2022-10-04T19:56:47.337Z,89.57
2022-10-04T19:59:35.785Z,90.10
2022-10-04T20:02:02.380Z,89.97
2022-10-04T20:04:42.157Z,91.57
2022-10-04T20:07:15.100Z,90.38
2022-10-04T20:09:43.601Z,89.15
2022-10-04T20:12:40.128Z,88.93
2022-10-04T20:15:20.083Z,88.25
2022-10-04T20:17:49.793Z,88.71
2022-10-04T20:20:39.205Z,89.60
2022-10-04T20:23:07.628Z,93.04
2022-10-04T20:25:54.247Z,91.29
2022-10-04T20:28:26.866Z,90.80
2022-10-04T20:31:02.248Z,89.63
2022-10-04T20:33:34.818Z,89.33
2022-10-04T20:36:03.893Z,89.62
2022-10-04T20:38:54.349Z,89.45
2022-10-04T20:41:48.802Z,89.61
2022-10-04T20:45:09.203Z,88.92
2022-10-04T20:47:42.808Z,89.45
2022-10-04T20:50:29.264Z,89.55
2022-10-04T20:52:58.778Z,89.81
2022-10-04T20:55:34.065Z,92.72
2022-10-04T20:58:25.306Z,91.91
2022-10-04T21:00:54.573Z,93.03
2022-10-04T21:03:22.003Z,92.92
2022-10-04T21:06:08.843Z,91.06
2022-10-04T21:08:36.681Z,90.65
2022-10-04T21:11:19.433Z,91.12
2022-10-04T21:13:58.353Z,90.93
2022-10-04T21:16:39.007Z,90.84
2022-10-04T21:19:30.313Z,90.89
2022-10-04T21:21:57.626Z,90.85
2022-10-04T21:24:52.901Z,89.85
2022-10-04T21:27:35.953Z,90.32
2022-10-04T21:30:06.788Z,91.15
2022-10-04T21:32:35.936Z,91.94
2022-10-04T21:35:04.286Z,91.09
2022-10-04T21:37:31.287Z,90.86
2022-10-04T21:39:57.833Z,89.86
2022-10-04T21:42:25.561Z,90.81
2022-10-04T21:44:52.035Z,91.94
2022-10-04T21:47:21.522Z,91.33
2022-10-04T21:49:48.738Z,91.68
2022-10-04T21:52:17.497Z,91.46
2022-10-04T21:54:44.687Z,91.77
2022-10-04T21:57:11.568Z,91.30
2022-10-04T21:59:37.940Z,90.65
2022-10-04T22:02:04.597Z,91.09
2022-10-04T22:04:30.991Z,91.29
2022-10-04T22:06:57.322Z,90.56
2022-10-04T22:09:23.758Z,90.31
2022-10-04T22:11:50.172Z,89.90
2022-10-04T22:14:16.609Z,90.18
2022-10-04T22:16:44.108Z,90.08
2022-10-04T22:19:10.744Z,91.37
2022-10-04T22:21:37.145Z,90.54
2022-10-04T22:24:04.424Z,89.51
2022-10-04T22:26:31.350Z,90.35
2022-10-04T22:28:57.838Z,89.97
2022-10-04T22:31:29.509Z,91.70
2022-10-04T22:33:56.700Z,91.15
2022-10-04T22:36:27.069Z,91.44
2022-10-04T22:38:58.702Z,91.34
2022-10-04T22:41:35.476Z,91.87
2022-10-04T22:44:23.282Z,91.62
2022-10-04T22:46:52.901Z,91.69
2022-10-04T22:49:25.062Z,92.10
2022-10-04T22:51:53.031Z,92.72
2022-10-04T22:54:22.014Z,92.52
2022-10-04T22:56:49.165Z,92.90
2022-10-04T22:59:19.496Z,93.36
2022-10-04T23:01:46.885Z,93.04
2022-10-04T23:04:24.962Z,94.28
2022-10-04T23:06:52.848Z,93.86
2022-10-04T23:09:19.973Z,93.57
2022-10-04T23:11:46.878Z,93.12
2022-10-04T23:14:13.293Z,92.77
2022-10-04T23:16:39.812Z,93.33
2022-10-04T23:19:08.939Z,92.94
2022-10-04T23:21:38.341Z,92.28
2022-10-04T23:24:22.579Z,92.95
2022-10-04T23:26:54.591Z,92.82
2022-10-04T23:29:31.942Z,93.32
2022-10-04T23:31:58.480Z,93.30
2022-10-04T23:34:30.495Z,92.94
2022-10-04T23:36:57.024Z,92.98
2022-10-04T23:39:41.856Z,93.48
2022-10-04T23:42:33.588Z,94.34
2022-10-04T23:45:01.457Z,93.54
2022-10-04T23:47:33.535Z,93.67
2022-10-04T23:49:59.976Z,94.00
2022-10-04T23:52:34.799Z,92.58
2022-10-04T23:55:02.633Z,92.79
2022-10-04T23:57:31.117Z,92.87
